createdAt,value
2018-12-13T00:00:35.194Z,101656.00
2018-12-13T00:03:04.614Z,101651.00
2018-12-13T00:05:35.997Z,101657.00
2018-12-13T00:08:05.363Z,101657.00
2018-12-13T00:10:34.668Z,101664.00
2018-12-13T00:13:07.445Z,101646.00
2018-12-13T00:15:36.815Z,101641.00
2018-12-13T00:18:06.312Z,101644.00
2018-12-13T00:20:35.762Z,101650.00
2018-12-13T00:23:05.205Z,101649.00
2018-12-13T00:25:34.535Z,101650.00
2018-12-13T00:28:03.988Z,101651.00
2018-12-13T00:30:33.269Z,101653.00
2018-12-13T00:33:02.692Z,101649.00
2018-12-13T00:35:31.993Z,101653.00
2018-12-13T00:38:03.358Z,101659.00
2018-12-13T00:40:32.691Z,101650.00
2018-12-13T00:43:01.933Z,101648.00
2018-12-13T00:45:31.339Z,101636.00
2018-12-13T00:48:00.709Z,101632.00
2018-12-13T00:50:29.957Z,101635.00
2018-12-13T00:52:59.260Z,101620.00
2018-12-13T00:55:28.604Z,101640.00
2018-12-13T00:57:57.905Z,101643.00
2018-12-13T01:00:27.178Z,101630.00
2018-12-13T01:02:56.500Z,101639.00
2018-12-13T01:05:25.903Z,101631.00
2018-12-13T01:07:55.196Z,101634.00
2018-12-13T01:10:25.510Z,101629.00
2018-12-13T01:12:54.795Z,101616.00
2018-12-13T01:15:26.123Z,101619.00
2018-12-13T01:17:55.465Z,101624.00
2018-12-13T01:20:24.828Z,101624.00
2018-12-13T01:22:54.060Z,101622.00
2018-12-13T01:25:23.851Z,101621.00
2018-12-13T01:27:53.194Z,101627.00
2018-12-13T01:30:22.500Z,101626.00
2018-12-13T01:32:51.799Z,101612.00
2018-12-13T01:35:21.078Z,101623.00
2018-12-13T01:37:50.378Z,101619.00
2018-12-13T01:40:19.674Z,101627.00
2018-12-13T01:42:49.039Z,101617.00
2018-12-13T01:45:19.548Z,101629.00
2018-12-13T01:47:48.904Z,101625.00
2018-12-13T01:50:18.190Z,101619.00
2018-12-13T01:52:47.472Z,101627.00
2018-12-13T01:55:16.706Z,101626.00
2018-12-13T01:57:46.046Z,101624.00
2018-12-13T02:00:15.351Z,101621.00
2018-12-13T02:02:44.610Z,101609.00
2018-12-13T02:05:13.931Z,101614.00
2018-12-13T02:07:43.223Z,101615.00
2018-12-13T02:10:13.630Z,101618.00
2018-12-13T02:12:42.931Z,101614.00
2018-12-13T02:15:12.268Z,101621.00
2018-12-13T02:17:41.549Z,101613.00
2018-12-13T02:20:11.128Z,101606.00
2018-12-13T02:22:40.527Z,101614.00
2018-12-13T02:25:09.976Z,101609.00
2018-12-13T02:27:39.243Z,101615.00
2018-12-13T02:30:08.845Z,101616.00
2018-12-13T02:32:38.127Z,101606.00
2018-12-13T02:35:07.702Z,101604.00
2018-12-13T02:37:39.027Z,101608.00
2018-12-13T02:40:08.583Z,101609.00
2018-12-13T02:42:37.886Z,101604.00
2018-12-13T02:45:07.459Z,101605.00
2018-12-13T02:47:41.737Z,101609.00
2018-12-13T02:50:11.179Z,101595.00
2018-12-13T02:52:40.407Z,101612.00
2018-12-13T02:55:09.722Z,101597.00
2018-12-13T02:57:38.972Z,101601.00
2018-12-13T03:00:08.488Z,101606.00
2018-12-13T03:02:37.865Z,101602.00
2018-12-13T03:05:07.418Z,101602.00
2018-12-13T03:07:36.689Z,101594.00
2018-12-13T03:10:06.634Z,101589.00
2018-12-13T03:12:35.886Z,101602.00
2018-12-13T03:15:05.616Z,101593.00
2018-12-13T03:17:34.902Z,101597.00
2018-12-13T03:20:05.277Z,101601.00
2018-12-13T03:22:35.601Z,101596.00
2018-12-13T03:25:05.445Z,101605.00
2018-12-13T03:27:34.782Z,101594.00
2018-12-13T03:30:04.369Z,101600.00
2018-12-13T03:32:33.904Z,101597.00
2018-12-13T03:35:03.297Z,101598.00
2018-12-13T03:37:32.558Z,101594.00
2018-12-13T03:40:01.858Z,101596.00
2018-12-13T03:42:31.253Z,101592.00
2018-12-13T03:45:00.545Z,101591.00
2018-12-13T03:47:29.842Z,101570.00
2018-12-13T03:49:59.185Z,101580.00
2018-12-13T03:52:28.600Z,101579.00
2018-12-13T03:54:57.871Z,101570.00
2018-12-13T03:57:27.130Z,101561.00
2018-12-13T03:59:56.414Z,101561.00
2018-12-13T04:02:25.710Z,101564.00
2018-12-13T04:04:54.963Z,101562.00
2018-12-13T04:07:27.727Z,101551.00
2018-12-13T04:09:56.564Z,101570.00
2018-12-13T04:12:25.942Z,101563.00
2018-12-13T04:14:55.206Z,101557.00
2018-12-13T04:17:24.462Z,101564.00
2018-12-13T04:19:53.815Z,101571.00
2018-12-13T04:22:23.042Z,101572.00
2018-12-13T04:24:52.302Z,101556.00
2018-12-13T04:27:21.591Z,101567.00
2018-12-13T04:29:51.353Z,101560.00
2018-12-13T04:32:22.729Z,101553.00
2018-12-13T04:34:52.126Z,101543.00
2018-12-13T04:37:21.414Z,101546.00
2018-12-13T04:39:50.781Z,101553.00
2018-12-13T04:42:20.129Z,101551.00
2018-12-13T04:44:49.415Z,101548.00
2018-12-13T04:47:18.696Z,101549.00
2018-12-13T04:49:48.029Z,101560.00
2018-12-13T04:52:17.290Z,101544.00
2018-12-13T04:54:46.535Z,101534.00
2018-12-13T04:57:15.806Z,101548.00
2018-12-13T04:59:45.195Z,101533.00
2018-12-13T05:02:14.561Z,101538.00
2018-12-13T05:04:43.774Z,101542.00
2018-12-13T05:07:13.058Z,101544.00
2018-12-13T05:09:42.285Z,101537.00
2018-12-13T05:12:11.555Z,101540.00
2018-12-13T05:14:40.782Z,101528.00
2018-12-13T05:17:10.032Z,101523.00
2018-12-13T05:19:39.392Z,101529.00
2018-12-13T05:22:08.761Z,101524.00
2018-12-13T05:24:38.063Z,101522.00
2018-12-13T05:27:07.279Z,101536.00
2018-12-13T05:29:37.717Z,101521.00
2018-12-13T05:32:07.007Z,101515.00
2018-12-13T05:34:36.319Z,101514.00
2018-12-13T05:37:05.652Z,101512.00
2018-12-13T05:39:34.990Z,101514.00
2018-12-13T05:42:04.289Z,101507.00
2018-12-13T05:44:33.679Z,101503.00
2018-12-13T05:47:02.956Z,101499.00
2018-12-13T05:49:32.279Z,101515.00
2018-12-13T05:52:01.594Z,101506.00
2018-12-13T05:54:30.956Z,101506.00
2018-12-13T05:57:00.385Z,101509.00
2018-12-13T05:59:29.716Z,101508.00
2018-12-13T06:01:59.046Z,101501.00
2018-12-13T06:04:28.351Z,101505.00
2018-12-13T06:06:57.643Z,101506.00
2018-12-13T06:09:26.923Z,101502.00
2018-12-13T06:11:56.368Z,101499.00
2018-12-13T06:14:25.662Z,101506.00
2018-12-13T06:16:55.052Z,101503.00
2018-12-13T06:19:26.878Z,101507.00
2018-12-13T06:21:55.960Z,101500.00
2018-12-13T06:24:26.350Z,101516.00
2018-12-13T06:26:55.677Z,101504.00
2018-12-13T06:29:24.982Z,101505.00
2018-12-13T06:31:54.331Z,101518.00
2018-12-13T06:34:24.088Z,101519.00
2018-12-13T06:36:53.382Z,101522.00
2018-12-13T06:39:22.981Z,101516.00
2018-12-13T06:41:52.288Z,101508.00
2018-12-13T06:44:21.582Z,101516.00
2018-12-13T06:46:50.852Z,101513.00
2018-12-13T06:49:20.159Z,101520.00
2018-12-13T06:51:49.586Z,101518.00
2018-12-13T06:54:19.945Z,101519.00
2018-12-13T06:56:49.381Z,101522.00
2018-12-13T06:59:18.690Z,101517.00
2018-12-13T07:01:48.040Z,101511.00
2018-12-13T07:04:17.319Z,101512.00
2018-12-13T07:06:48.786Z,101525.00
2018-12-13T07:09:18.068Z,101528.00
2018-12-13T07:11:47.328Z,101529.00
2018-12-13T07:14:16.701Z,101523.00
2018-12-13T07:16:46.054Z,101536.00
2018-12-13T07:19:15.395Z,101533.00
2018-12-13T07:21:44.667Z,101525.00
2018-12-13T07:24:16.061Z,101530.00
2018-12-13T07:26:45.444Z,101520.00
2018-12-13T07:29:14.686Z,101531.00
2018-12-13T07:31:45.189Z,101537.00
2018-12-13T07:34:14.441Z,101518.00
2018-12-13T07:36:43.739Z,101531.00
2018-12-13T07:39:14.083Z,101521.00
2018-12-13T07:41:43.378Z,101520.00
2018-12-13T07:44:12.773Z,101521.00
2018-12-13T07:46:42.043Z,101533.00
2018-12-13T07:49:11.371Z,101528.00
2018-12-13T07:51:40.658Z,101527.00
2018-12-13T07:54:10.022Z,101528.00
2018-12-13T07:56:39.339Z,101521.00
2018-12-13T07:59:13.572Z,101519.00
2018-12-13T08:01:43.275Z,101523.00
2018-12-13T08:04:12.506Z,101522.00
2018-12-13T08:06:41.763Z,101526.00
2018-12-13T08:09:11.143Z,101519.00
2018-12-13T08:11:40.429Z,101522.00
2018-12-13T08:14:09.717Z,101512.00
2018-12-13T08:16:39.067Z,101507.00
2018-12-13T08:19:08.337Z,101522.00
2018-12-13T08:21:38.783Z,101512.00
2018-12-13T08:24:08.041Z,101517.00
2018-12-13T08:26:37.304Z,101519.00
2018-12-13T08:29:06.575Z,101505.00
2018-12-13T08:31:35.858Z,101514.00
2018-12-13T08:34:05.208Z,101516.00
2018-12-13T08:36:36.563Z,101506.00
2018-12-13T08:39:09.969Z,101515.00
2018-12-13T08:41:39.412Z,101516.00
2018-12-13T08:44:09.755Z,101516.00
2018-12-13T08:46:39.070Z,101496.00
2018-12-13T08:49:08.428Z,101511.00
2018-12-13T08:51:37.711Z,101513.00
2018-12-13T08:54:06.957Z,101499.00
2018-12-13T08:56:36.211Z,101505.00
2018-12-13T08:59:05.593Z,101508.00
2018-12-13T09:01:34.816Z,101509.00
2018-12-13T09:04:04.160Z,101512.00
2018-12-13T09:06:33.509Z,101519.00
2018-12-13T09:09:03.150Z,101520.00
2018-12-13T09:11:33.489Z,101523.00
2018-12-13T09:14:03.070Z,101515.00
2018-12-13T09:16:32.306Z,101520.00
2018-12-13T09:19:01.552Z,101519.00
2018-12-13T09:21:30.786Z,101522.00
2018-12-13T09:24:00.060Z,101516.00
2018-12-13T09:26:29.400Z,101519.00
2018-12-13T09:28:58.711Z,101519.00
2018-12-13T09:31:27.997Z,101526.00
2018-12-13T09:33:57.297Z,101529.00
2018-12-13T09:36:26.567Z,101526.00
2018-12-13T09:38:55.847Z,101527.00
2018-12-13T09:41:25.245Z,101526.00
2018-12-13T09:43:54.491Z,101523.00
2018-12-13T09:46:23.690Z,101524.00
2018-12-13T09:48:52.924Z,101528.00
2018-12-13T09:51:22.168Z,101534.00
2018-12-13T09:53:51.490Z,101530.00
2018-12-13T09:56:20.823Z,101520.00
2018-12-13T09:58:50.076Z,101520.00
2018-12-13T10:01:19.343Z,101529.00
2018-12-13T10:03:48.543Z,101523.00
2018-12-13T10:06:17.791Z,101523.00
2018-12-13T10:08:47.021Z,101512.00
2018-12-13T10:11:16.398Z,101511.00
2018-12-13T10:13:52.249Z,101523.00
2018-12-13T10:16:21.583Z,101520.00
2018-12-13T10:18:50.919Z,101521.00
2018-12-13T10:21:20.214Z,101510.00
2018-12-13T10:23:49.667Z,101505.00
2018-12-13T10:26:18.898Z,101507.00
2018-12-13T10:28:48.127Z,101504.00
2018-12-13T10:31:17.364Z,101509.00
2018-12-13T10:33:46.588Z,101510.00
2018-12-13T10:36:15.829Z,101498.00
2018-12-13T10:38:45.072Z,101502.00
2018-12-13T10:41:14.467Z,101506.00
2018-12-13T10:43:43.749Z,101487.00
2018-12-13T10:46:13.024Z,101495.00
2018-12-13T10:48:42.324Z,101489.00
2018-12-13T10:51:11.712Z,101492.00
2018-12-13T10:53:41.120Z,101488.00
2018-12-13T10:56:10.351Z,101488.00
2018-12-13T10:58:38.750Z,101478.00
2018-12-13T11:01:13.140Z,101483.00
2018-12-13T11:03:42.414Z,101481.00
2018-12-13T11:06:11.656Z,101475.00
2018-12-13T11:08:40.938Z,101474.00
2018-12-13T11:11:10.278Z,101477.00
2018-12-13T11:13:39.495Z,101475.00
2018-12-13T11:16:08.731Z,101469.00
2018-12-13T11:18:38.066Z,101467.00
2018-12-13T11:21:07.381Z,101463.00
2018-12-13T11:23:36.705Z,101468.00
2018-12-13T11:26:05.958Z,101459.00
2018-12-13T11:30:31.339Z,101467.00
2018-12-13T11:33:00.574Z,101454.00
2018-12-13T11:35:29.816Z,101459.00
2018-12-13T11:37:59.137Z,101443.00
2018-12-13T11:40:28.395Z,101441.00
2018-12-13T11:42:57.716Z,101437.00
2018-12-13T11:45:27.084Z,101448.00
2018-12-13T11:47:56.337Z,101447.00
2018-12-13T11:50:25.809Z,101436.00
2018-12-13T11:52:55.027Z,101435.00
2018-12-13T11:55:34.144Z,101429.00
2018-12-13T11:58:05.873Z,101429.00
2018-12-13T12:00:35.158Z,101427.00
2018-12-13T12:03:04.398Z,101416.00
2018-12-13T12:05:33.702Z,101409.00
2018-12-13T12:08:03.077Z,101410.00
2018-12-13T12:10:32.339Z,101405.00
2018-12-13T12:13:01.719Z,101408.00
2018-12-13T12:15:30.946Z,101391.00
2018-12-13T12:18:00.466Z,101404.00
2018-12-13T12:20:29.695Z,101397.00
2018-12-13T12:22:58.987Z,101401.00
2018-12-13T12:25:28.190Z,101402.00
2018-12-13T12:27:59.558Z,101389.00
2018-12-13T12:30:29.016Z,101403.00
2018-12-13T12:32:58.242Z,101396.00
2018-12-13T12:35:27.450Z,101400.00
2018-12-13T12:37:56.750Z,101399.00
2018-12-13T12:40:25.983Z,101406.00
2018-12-13T12:42:55.253Z,101404.00
2018-12-13T12:45:24.596Z,101403.00
2018-12-13T12:47:53.840Z,101389.00
2018-12-13T12:50:25.222Z,101397.00
2018-12-13T12:52:54.529Z,101404.00
2018-12-13T12:55:24.831Z,101397.00
2018-12-13T12:57:54.119Z,101396.00
2018-12-13T13:00:23.424Z,101390.00
2018-12-13T13:02:52.856Z,101400.00
2018-12-13T13:05:23.237Z,101389.00
2018-12-13T13:07:52.478Z,101403.00
2018-12-13T13:10:21.756Z,101397.00
2018-12-13T13:12:52.275Z,101385.00
2018-12-13T13:15:21.591Z,101378.00
2018-12-13T13:17:50.966Z,101390.00
2018-12-13T13:20:20.215Z,101388.00
2018-12-13T13:22:49.461Z,101383.00
2018-12-13T13:25:18.737Z,101373.00
2018-12-13T13:27:48.010Z,101383.00
2018-12-13T13:30:17.338Z,101377.00
2018-12-13T13:32:46.753Z,101377.00
2018-12-13T13:35:16.257Z,101367.00
2018-12-13T13:37:45.519Z,101369.00
2018-12-13T13:40:14.750Z,101364.00
2018-12-13T13:42:50.609Z,101362.00
2018-12-13T13:45:20.076Z,101359.00
2018-12-13T13:47:49.289Z,101357.00
2018-12-13T13:50:18.569Z,101364.00
2018-12-13T13:52:47.883Z,101367.00
2018-12-13T13:55:19.303Z,101370.00
2018-12-13T13:57:49.639Z,101370.00
2018-12-13T14:00:18.850Z,101371.00
2018-12-13T14:02:48.267Z,101375.00
2018-12-13T14:05:17.705Z,101371.00
2018-12-13T14:07:47.083Z,101378.00
2018-12-13T14:10:16.418Z,101378.00
2018-12-13T14:12:45.720Z,101372.00
2018-12-13T14:15:15.012Z,101375.00
2018-12-13T14:17:45.334Z,101372.00
2018-12-13T14:20:14.740Z,101369.00
2018-12-13T14:22:46.382Z,101366.00
2018-12-13T14:25:15.710Z,101366.00
2018-12-13T14:27:45.028Z,101362.00
2018-12-13T14:30:14.493Z,101341.00
2018-12-13T14:32:43.755Z,101360.00
2018-12-13T14:35:19.079Z,101360.00
2018-12-13T14:37:50.583Z,101371.00
2018-12-13T14:40:19.926Z,101366.00
2018-12-13T14:42:50.292Z,101372.00
2018-12-13T14:45:19.590Z,101361.00
2018-12-13T14:47:49.962Z,101365.00
2018-12-13T14:50:19.418Z,101363.00
2018-12-13T14:52:49.660Z,101366.00
2018-12-13T14:55:19.144Z,101347.00
2018-12-13T14:57:48.491Z,101364.00
2018-12-13T15:00:17.889Z,101357.00
2018-12-13T15:02:47.275Z,101367.00
2018-12-13T15:05:16.926Z,101373.00
2018-12-13T15:07:48.190Z,101375.00
2018-12-13T15:10:17.495Z,101380.00
2018-12-13T15:12:46.820Z,101383.00
2018-12-13T15:15:18.233Z,101387.00
2018-12-13T15:17:47.522Z,101380.00
2018-12-13T15:20:16.751Z,101384.00
2018-12-13T15:22:46.080Z,101381.00
2018-12-13T15:25:15.478Z,101383.00
2018-12-13T15:27:44.744Z,101380.00
2018-12-13T15:30:15.235Z,101381.00
2018-12-13T15:32:44.623Z,101381.00
2018-12-13T15:35:13.882Z,101386.00
2018-12-13T15:37:45.531Z,101378.00
2018-12-13T15:40:17.979Z,101380.00
2018-12-13T15:42:49.364Z,101377.00
2018-12-13T15:45:19.749Z,101376.00
2018-12-13T15:47:49.014Z,101391.00
2018-12-13T15:50:18.289Z,101391.00
2018-12-13T15:52:49.620Z,101391.00
2018-12-13T15:55:20.892Z,101389.00
2018-12-13T15:57:50.257Z,101391.00
2018-12-13T16:00:19.568Z,101393.00
2018-12-13T16:02:49.969Z,101388.00
2018-12-13T16:05:19.567Z,101392.00
2018-12-13T16:07:48.939Z,101383.00
2018-12-13T16:10:18.227Z,101383.00
2018-12-13T16:12:47.628Z,101373.00
2018-12-13T16:15:16.914Z,101376.00
2018-12-13T16:17:46.183Z,101382.00
2018-12-13T16:20:15.607Z,101371.00
2018-12-13T16:22:45.588Z,101371.00
2018-12-13T16:25:14.825Z,101375.00
2018-12-13T16:27:44.132Z,101375.00
2018-12-13T16:30:13.919Z,101374.00
2018-12-13T16:32:44.210Z,101366.00
2018-12-13T16:35:13.506Z,101366.00
2018-12-13T16:37:46.907Z,101358.00
2018-12-13T16:40:16.186Z,101357.00
2018-12-13T16:42:45.508Z,101348.00
2018-12-13T16:45:14.785Z,101360.00
2018-12-13T16:47:46.111Z,101359.00
2018-12-13T16:50:15.418Z,101350.00
2018-12-13T16:52:44.812Z,101360.00
2018-12-13T16:55:14.190Z,101364.00
2018-12-13T16:57:45.566Z,101355.00
2018-12-13T17:00:16.076Z,101357.00
2018-12-13T17:02:46.468Z,101374.00
2018-12-13T17:05:15.713Z,101363.00
2018-12-13T17:07:45.075Z,101369.00
2018-12-13T17:10:16.949Z,101369.00
2018-12-13T17:12:46.409Z,101359.00
2018-12-13T17:15:15.828Z,101362.00
2018-12-13T17:17:45.214Z,101364.00
2018-12-13T17:20:14.713Z,101367.00
2018-12-13T17:22:45.992Z,101374.00
2018-12-13T17:25:15.403Z,101372.00
2018-12-13T17:27:44.877Z,101371.00
2018-12-13T17:30:14.211Z,101375.00
2018-12-13T17:32:43.647Z,101377.00
2018-12-13T17:35:18.827Z,101375.00
2018-12-13T17:37:48.285Z,101374.00
2018-12-13T17:40:22.981Z,101365.00
2018-12-13T17:42:49.547Z,101367.00
2018-12-13T17:45:19.049Z,101367.00
2018-12-13T17:47:49.540Z,101370.00
2018-12-13T17:50:19.027Z,101374.00
2018-12-13T17:52:48.396Z,101386.00
2018-12-13T17:55:17.867Z,101385.00
2018-12-13T17:57:47.283Z,101386.00
2018-12-13T18:00:16.748Z,101399.00
2018-12-13T18:02:46.055Z,101390.00
2018-12-13T18:05:15.490Z,101395.00
2018-12-13T18:07:45.882Z,101391.00
2018-12-13T18:10:15.855Z,101385.00
2018-12-13T18:12:45.203Z,101385.00
2018-12-13T18:15:14.654Z,101385.00
2018-12-13T18:17:45.065Z,101384.00
2018-12-13T18:20:14.339Z,101377.00
2018-12-13T18:22:43.730Z,101373.00
2018-12-13T18:25:21.643Z,101379.00
2018-12-13T18:27:51.005Z,101379.00
2018-12-13T18:30:20.391Z,101373.00
2018-12-13T18:32:49.596Z,101361.00
2018-12-13T18:35:18.989Z,101369.00
2018-12-13T18:37:48.332Z,101364.00
2018-12-13T18:40:17.666Z,101359.00
2018-12-13T18:42:48.110Z,101346.00
2018-12-13T18:45:19.399Z,101349.00
2018-12-13T18:47:48.870Z,101369.00
2018-12-13T18:50:18.226Z,101375.00
2018-12-13T18:52:48.708Z,101373.00
2018-12-13T18:55:18.005Z,101369.00
2018-12-13T18:57:48.429Z,101370.00
2018-12-13T19:00:17.710Z,101376.00
2018-12-13T19:02:46.925Z,101372.00
2018-12-13T19:05:16.189Z,101378.00
2018-12-13T19:07:45.490Z,101386.00
2018-12-13T19:10:18.121Z,101385.00
2018-12-13T19:12:52.918Z,101382.00
2018-12-13T19:15:34.811Z,101386.00
2018-12-13T19:18:26.299Z,101383.00
2018-12-13T19:21:01.844Z,101385.00
2018-12-13T19:23:34.905Z,101390.00
2018-12-13T19:26:11.177Z,101382.00
2018-12-13T19:28:44.268Z,101392.00
2018-12-13T19:31:19.714Z,101392.00
2018-12-13T19:33:54.707Z,101384.00
2018-12-13T19:36:29.642Z,101377.00
2018-12-13T19:39:07.999Z,101394.00
2018-12-13T19:41:42.699Z,101391.00
2018-12-13T19:44:27.913Z,101404.00
2018-12-13T19:47:21.966Z,101404.00
2018-12-13T19:49:56.823Z,101398.00
2018-12-13T19:52:29.230Z,101404.00
2018-12-13T19:55:10.695Z,101407.00
2018-12-13T19:57:45.427Z,101402.00
2018-12-13T20:00:18.544Z,101402.00
2018-12-13T20:02:51.835Z,101410.00
2018-12-13T20:05:22.270Z,101419.00
2018-12-13T20:07:55.577Z,101415.00
2018-12-13T20:10:47.693Z,101418.00
2018-12-13T20:13:20.882Z,101407.00
2018-12-13T20:16:06.024Z,101412.00
2018-12-13T20:18:39.683Z,101412.00
2018-12-13T20:21:15.242Z,101410.00
2018-12-13T20:23:50.564Z,101422.00
2018-12-13T20:26:26.132Z,101412.00
2018-12-13T20:32:01.958Z,101420.00
2018-12-13T20:34:37.397Z,101420.00
2018-12-13T20:37:13.112Z,101413.00
2018-12-13T20:39:49.197Z,101421.00
2018-12-13T20:42:34.599Z,101406.00
2018-12-13T20:45:09.909Z,101425.00
2018-12-13T20:47:42.571Z,101411.00
2018-12-13T20:50:17.425Z,101421.00
2018-12-13T20:52:50.560Z,101426.00
2018-12-13T20:55:25.421Z,101415.00
2018-12-13T20:58:00.777Z,101416.00
2018-12-13T21:00:34.487Z,101413.00
2018-12-13T21:03:07.059Z,101424.00
2018-12-13T21:05:39.599Z,101422.00
2018-12-13T21:08:14.360Z,101411.00
2018-12-13T21:10:46.758Z,101414.00
2018-12-13T21:13:27.023Z,101426.00
2018-12-13T21:16:15.215Z,101416.00
2018-12-13T21:18:51.423Z,101420.00
2018-12-13T21:21:36.655Z,101424.00
2018-12-13T21:24:11.373Z,101422.00
2018-12-13T21:26:43.098Z,101425.00
2018-12-13T21:29:14.359Z,101407.00
2018-12-13T21:31:46.864Z,101434.00
2018-12-13T21:34:21.715Z,101428.00
2018-12-13T21:36:54.615Z,101431.00
2018-12-13T21:39:27.771Z,101427.00
2018-12-13T21:42:04.815Z,101426.00
2018-12-13T21:44:40.108Z,101434.00
2018-12-13T21:47:15.232Z,101421.00
2018-12-13T21:49:50.527Z,101417.00
2018-12-13T21:52:24.585Z,101434.00
2018-12-13T21:54:57.298Z,101424.00
2018-12-13T21:57:32.938Z,101416.00
2018-12-13T22:00:09.642Z,101419.00
2018-12-13T22:02:42.741Z,101392.00
2018-12-13T22:05:18.056Z,101423.00
2018-12-13T22:07:53.589Z,101422.00
2018-12-13T22:10:28.957Z,101424.00
2018-12-13T22:13:02.037Z,101401.00
2018-12-13T22:15:34.555Z,101416.00
2018-12-13T22:18:07.138Z,101410.00
2018-12-13T22:20:43.679Z,101422.00
2018-12-13T22:23:16.611Z,101423.00
2018-12-13T22:25:56.202Z,101417.00
2018-12-13T22:28:29.437Z,101416.00
2018-12-13T22:31:02.283Z,101418.00
2018-12-13T22:33:35.716Z,101420.00
2018-12-13T22:36:08.364Z,101429.00
2018-12-13T22:38:41.145Z,101435.00
2018-12-13T22:41:13.590Z,101418.00
2018-12-13T22:43:48.823Z,101422.00
2018-12-13T22:46:24.428Z,101424.00
2018-12-13T22:55:02.971Z,101351.00
2018-12-13T22:57:38.283Z,101419.00
2018-12-13T23:00:13.544Z,101424.00
2018-12-13T23:02:44.648Z,101423.00
2018-12-13T23:05:19.715Z,101416.00
2018-12-13T23:07:58.011Z,101419.00
2018-12-13T23:10:33.909Z,101421.00
2018-12-13T23:13:18.759Z,101420.00
2018-12-13T23:15:53.573Z,101417.00
2018-12-13T23:21:33.946Z,101429.00
2018-12-13T23:24:04.998Z,101430.00
2018-12-13T23:26:40.251Z,101427.00
2018-12-13T23:32:16.663Z,101428.00
2018-12-13T23:35:00.651Z,101433.00
2018-12-13T23:37:35.793Z,101423.00
2018-12-13T23:40:08.487Z,101434.00
2018-12-13T23:42:39.608Z,101429.00
2018-12-13T23:45:12.905Z,101435.00
2018-12-13T23:47:48.109Z,101430.00
2018-12-13T23:50:31.309Z,101440.00
2018-12-13T23:53:06.567Z,101438.00
2018-12-13T23:55:41.847Z,101441.00
2018-12-13T23:58:36.270Z,101439.00
